Time;durP1;ratioP1;P1;durP2;ratioP2;P2;SDS_P1;SDS_P2;PMS_P1;PMS_P2;Temp;Humidity;BMP_temperature;BMP_pressure;BME280_temperature;BME280_humidity;BME280_pressure;Samples;Min_cycle;Max_cycle;Signal;HPM_P1;HPM_P2
2021/12/25 00:01:04;;;;;;;21.90;13.32;;;9.80;99.90;;;;;;5108138;28;20548;-61
2021/12/25 00:03:32;;;;;;;22.02;13.18;;;9.60;99.90;;;;;;5106102;28;20418;-62
2021/12/25 00:06:00;;;;;;;22.95;12.57;;;9.60;99.90;;;;;;5110036;28;20071;-62
2021/12/25 00:08:29;;;;;;;18.70;12.90;;;9.50;99.90;;;;;;5089610;28;20038;-62
2021/12/25 00:10:58;;;;;;;17.88;12.70;;;9.50;99.90;;;;;;5101435;28;20044;-61
2021/12/25 00:13:26;;;;;;;20.02;14.95;;;9.50;99.90;;;;;;5102551;28;20525;-62
2021/12/25 00:15:54;;;;;;;19.40;14.60;;;9.40;99.90;;;;;;5103280;28;20044;-61
2021/12/25 00:18:22;;;;;;;22.73;14.48;;;9.50;99.90;;;;;;5106955;28;20102;-62
2021/12/25 00:20:49;;;;;;;22.05;16.23;;;9.50;99.90;;;;;;5087501;28;20563;-62
2021/12/25 00:23:19;;;;;;;18.55;13.48;;;9.40;99.90;;;;;;5103382;28;20040;-62
2021/12/25 00:25:51;;;;;;;19.00;13.55;;;9.40;99.90;;;;;;5104316;28;20036;-61
2021/12/25 00:36:16;;;;;;;22.73;13.70;;;9.50;99.90;;;;;;5095894;28;20070;-62
2021/12/25 00:38:44;;;;;;;17.13;12.48;;;9.50;99.90;;;;;;5098362;28;20277;-61
2021/12/25 00:41:15;;;;;;;18.02;12.80;;;9.50;99.90;;;;;;5092326;28;20130;-63
2021/12/25 00:43:43;;;;;;;19.55;11.75;;;9.60;99.90;;;;;;5093034;28;20047;-62
2021/12/25 00:46:11;;;;;;;19.30;12.15;;;9.60;99.90;;;;;;5096284;28;20036;-62
2021/12/25 00:48:39;;;;;;;19.77;12.02;;;9.70;99.90;;;;;;5080330;28;20099;-61
2021/12/25 00:51:07;;;;;;;16.05;11.77;;;9.70;99.90;;;;;;5079367;28;20101;-61
2021/12/25 00:53:34;;;;;;;18.80;10.95;;;9.80;99.90;;;;;;5102958;28;20056;-62
2021/12/25 00:56:03;;;;;;;20.40;11.30;;;9.80;99.90;;;;;;5107430;28;20048;-62
2021/12/25 00:58:30;;;;;;;19.92;12.00;;;9.90;99.90;;;;;;5108032;28;20154;-62
2021/12/25 01:00:58;;;;;;;18.35;11.82;;;9.90;99.90;;;;;;5095937;28;20085;-62
2021/12/25 01:03:25;;;;;;;16.92;11.23;;;9.90;99.90;;;;;;5090636;28;20042;-62
2021/12/25 01:05:54;;;;;;;16.77;11.20;;;9.90;99.90;;;;;;5078575;28;20035;-62
2021/12/25 01:08:22;;;;;;;18.60;11.10;;;9.80;99.90;;;;;;5106758;28;20550;-62
2021/12/25 01:10:52;;;;;;;14.07;10.07;;;9.90;99.90;;;;;;5095527;28;20122;-62
2021/12/25 01:13:26;;;;;;;13.63;11.55;;;9.80;99.90;;;;;;5096096;28;20044;-63
2021/12/25 01:49:31;;;;;;;13.15;8.10;;;9.80;99.90;;;;;;5069649;28;20053;-62
2021/12/25 01:52:00;;;;;;;12.55;7.85;;;9.90;99.90;;;;;;5067093;28;20048;-62
2021/12/25 01:54:27;;;;;;;11.85;7.78;;;9.70;99.90;;;;;;5098845;28;20045;-62
2021/12/25 01:56:55;;;;;;;14.70;9.35;;;9.70;99.90;;;;;;5094378;28;20044;-63
2021/12/25 01:59:23;;;;;;;12.65;8.05;;;9.70;99.90;;;;;;5088988;28;20118;-62
2021/12/25 02:01:51;;;;;;;19.42;9.30;;;9.60;99.90;;;;;;5095120;28;20525;-62
2021/12/25 02:04:20;;;;;;;14.60;9.93;;;9.50;99.90;;;;;;5084595;28;20115;-62
2021/12/25 02:06:48;;;;;;;15.63;9.52;;;9.50;99.90;;;;;;5091506;28;20399;-62
2021/12/25 02:09:16;;;;;;;15.57;9.00;;;9.50;99.90;;;;;;5090810;28;20056;-62
2021/12/25 02:11:45;;;;;;;13.18;9.55;;;9.40;99.90;;;;;;5093985;28;20035;-63
2021/12/25 02:14:14;;;;;;;17.33;10.68;;;9.30;99.90;;;;;;5115141;27;20036;-62
2021/12/25 02:16:54;;;;;;;14.85;9.07;;;9.30;99.90;;;;;;5087443;28;20520;-62
2021/12/25 02:19:38;;;;;;;16.05;9.75;;;9.30;99.90;;;;;;5088262;28;20043;-63
2021/12/25 02:22:08;;;;;;;14.02;9.00;;;9.30;99.90;;;;;;5090283;28;20070;-62
2021/12/25 02:24:37;;;;;;;16.10;9.82;;;9.30;99.90;;;;;;5085122;28;20033;-62
2021/12/25 02:27:06;;;;;;;13.90;7.65;;;9.30;99.90;;;;;;5091842;28;20062;-62
2021/12/25 02:29:34;;;;;;;11.75;8.07;;;9.30;99.90;;;;;;5090677;28;20059;-62
2021/12/25 02:32:04;;;;;;;15.30;9.30;;;9.30;99.90;;;;;;5077376;28;20069;-62
2021/12/25 02:34:35;;;;;;;11.70;9.02;;;9.30;99.90;;;;;;5096357;28;20093;-62
2021/12/25 02:37:03;;;;;;;12.30;8.95;;;9.40;99.90;;;;;;5096435;28;20549;-62
2021/12/25 02:39:35;;;;;;;20.00;10.68;;;9.50;99.90;;;;;;5096412;28;20507;-62
2021/12/25 02:42:03;;;;;;;19.00;12.25;;;9.50;99.90;;;;;;5079891;28;20040;-62
2021/12/25 02:44:31;;;;;;;14.70;10.75;;;9.40;99.90;;;;;;5079462;28;20039;-62
2021/12/25 02:47:09;;;;;;;19.83;12.15;;;9.30;99.90;;;;;;5096258;28;20427;-62
2021/12/25 02:49:37;;;;;;;19.85;12.68;;;9.20;99.90;;;;;;5096805;28;20039;-62
2021/12/25 02:52:06;;;;;;;19.83;13.55;;;9.20;99.90;;;;;;5096363;28;20044;-62
2021/12/25 02:54:35;;;;;;;18.23;13.15;;;9.10;99.90;;;;;;5096609;28;20043;-62
2021/12/25 02:57:03;;;;;;;23.35;14.25;;;9.20;99.90;;;;;;5096173;28;20047;-62
2021/12/25 02:59:30;;;;;;;19.02;13.15;;;9.20;99.90;;;;;;5079681;28;20047;-62
2021/12/25 03:02:16;;;;;;;21.35;13.50;;;9.20;99.90;;;;;;5062610;28;20512;-62
2021/12/25 03:04:48;;;;;;;18.17;13.00;;;9.20;99.90;;;;;;5096109;28;20040;-62
2021/12/25 03:07:16;;;;;;;18.45;14.02;;;9.20;99.90;;;;;;5096265;28;20440;-62
2021/12/25 03:09:45;;;;;;;21.92;15.57;;;9.20;99.90;;;;;;5096095;28;20051;-62
2021/12/25 03:12:15;;;;;;;25.02;16.08;;;9.20;99.90;;;;;;5096307;28;20088;-62
2021/12/25 03:15:27;;;;;;;27.75;18.13;;;9.20;99.90;;;;;;5095891;28;20057;-62
2021/12/25 03:17:39;;;;;;;24.15;16.63;;;9.10;99.90;;;;;;5094087;28;20056;-62
2021/12/25 03:20:09;;;;;;;26.63;19.08;;;9.20;99.90;;;;;;5079319;28;20126;-62
2021/12/25 03:22:37;;;;;;;26.38;17.27;;;9.20;99.90;;;;;;5079138;28;20050;-62
2021/12/25 03:25:10;;;;;;;27.10;18.00;;;9.10;99.90;;;;;;5113975;28;20048;-62
2021/12/25 03:27:40;;;;;;;26.30;17.77;;;9.20;99.90;;;;;;5095843;28;20069;-62
2021/12/25 03:30:14;;;;;;;24.63;18.17;;;9.10;99.90;;;;;;5079994;28;20064;-62
2021/12/25 03:32:44;;;;;;;23.50;16.15;;;9.20;99.90;;;;;;5095876;28;20048;-62
2021/12/25 03:35:12;;;;;;;25.08;17.08;;;9.20;99.90;;;;;;5096001;28;20108;-62
2021/12/25 03:37:39;;;;;;;20.70;13.75;;;9.30;99.90;;;;;;5113909;28;20370;-62
2021/12/25 03:40:07;;;;;;;20.25;14.50;;;9.30;99.90;;;;;;5095784;28;20142;-62
2021/12/25 03:42:35;;;;;;;21.60;13.00;;;9.30;99.90;;;;;;5095692;28;20086;-62
2021/12/25 03:45:04;;;;;;;18.42;12.50;;;9.30;99.90;;;;;;5079021;28;20449;-62
2021/12/25 03:47:36;;;;;;;18.90;12.85;;;9.30;99.90;;;;;;5078595;28;20075;-62
2021/12/25 03:58:33;;;;;;;18.10;12.38;;;9.30;99.90;;;;;;5030213;28;20046;-62
2021/12/25 04:01:14;;;;;;;15.82;10.10;;;9.30;99.90;;;;;;5031976;28;20084;-62
2021/12/25 04:03:59;;;;;;;17.08;10.35;;;9.40;99.90;;;;;;5054684;28;20052;-62
2021/12/25 04:06:27;;;;;;;15.00;9.80;;;9.40;99.90;;;;;;5099301;28;20112;-62
2021/12/25 04:08:56;;;;;;;17.17;10.57;;;9.50;99.90;;;;;;5099263;28;20086;-62
2021/12/25 04:11:28;;;;;;;16.63;9.45;;;9.40;99.90;;;;;;5099160;28;20080;-62
2021/12/25 04:13:56;;;;;;;16.50;9.13;;;9.40;99.90;;;;;;5099446;28;20047;-62
2021/12/25 04:16:27;;;;;;;14.10;9.43;;;9.40;99.90;;;;;;5099086;28;20143;-62
2021/12/25 04:18:55;;;;;;;16.70;9.73;;;9.40;99.90;;;;;;5099276;28;20386;-62
2021/12/25 04:21:24;;;;;;;16.92;9.43;;;9.40;99.90;;;;;;5099389;28;20047;-62
2021/12/25 04:23:52;;;;;;;13.90;9.65;;;9.40;99.90;;;;;;5082382;28;20115;-62
2021/12/25 04:26:22;;;;;;;16.20;10.07;;;9.30;99.90;;;;;;5117078;28;20046;-62
2021/12/25 04:47:48;;;;;;;18.50;10.33;;;9.30;99.90;;;;;;5098746;28;20055;-62
2021/12/25 05:02:20;;;;;;;10.97;9.23;;;9.40;99.90;;;;;;5098719;28;20050;-62
2021/12/25 05:05:19;;;;;;;18.05;8.93;;;9.40;99.90;;;;;;5098516;28;20294;-62
2021/12/25 05:07:55;;;;;;;12.52;7.25;;;9.40;99.90;;;;;;5098027;28;20083;-62
2021/12/25 05:10:23;;;;;;;14.35;8.02;;;9.40;99.90;;;;;;5081643;28;20512;-62
2021/12/25 05:12:50;;;;;;;21.63;8.82;;;9.40;99.90;;;;;;5116723;28;20036;-62
2021/12/25 05:15:18;;;;;;;13.75;8.40;;;9.40;99.90;;;;;;5098024;28;20040;-62
2021/12/25 05:17:47;;;;;;;12.95;8.65;;;9.40;99.90;;;;;;5081451;28;20096;-62
2021/12/25 05:20:14;;;;;;;20.70;7.93;;;9.40;99.90;;;;;;5098158;28;20496;-62
2021/12/25 05:22:42;;;;;;;14.38;8.38;;;9.40;99.90;;;;;;5116397;28;20032;-62
2021/12/25 05:25:11;;;;;;;16.10;9.30;;;9.50;99.90;;;;;;5097938;28;20401;-62
2021/12/25 05:27:49;;;;;;;17.00;8.93;;;9.50;99.90;;;;;;5098120;28;20115;-62
2021/12/25 05:30:18;;;;;;;13.43;8.57;;;9.50;99.90;;;;;;5098066;28;20067;-62
2021/12/25 05:33:09;;;;;;;14.43;9.23;;;9.50;99.90;;;;;;5101380;28;20486;-62
2021/12/25 05:35:54;;;;;;;13.85;9.30;;;9.50;99.90;;;;;;5098083;28;20051;-62
2021/12/25 05:38:40;;;;;;;15.40;7.82;;;9.50;99.90;;;;;;5098154;28;20371;-62
2021/12/25 05:41:15;;;;;;;15.88;8.45;;;9.50;99.90;;;;;;5082265;28;20040;-62
2021/12/25 05:43:42;;;;;;;17.13;8.48;;;9.50;99.90;;;;;;5079978;28;20505;-62
2021/12/25 05:46:15;;;;;;;12.55;8.27;;;9.50;99.90;;;;;;5081664;28;20508;-62
2021/12/25 05:48:45;;;;;;;14.07;8.07;;;9.50;99.90;;;;;;5097596;28;20042;-62
2021/12/25 05:51:43;;;;;;;14.50;9.63;;;9.50;99.90;;;;;;5102181;28;20040;-62
2021/12/25 05:54:33;;;;;;;11.02;6.75;;;9.50;99.90;;;;;;5104600;28;20044;-62
2021/12/25 05:57:18;;;;;;;12.30;7.38;;;9.60;99.90;;;;;;5083410;28;20047;-61
2021/12/25 06:00:07;;;;;;;10.57;7.75;;;9.60;99.90;;;;;;5101367;28;20055;-62
2021/12/25 06:02:41;;;;;;;12.65;7.18;;;9.70;99.90;;;;;;5115694;28;20044;-62
2021/12/25 06:05:19;;;;;;;12.52;7.13;;;9.70;99.90;;;;;;5080365;28;20403;-62
2021/12/25 06:07:47;;;;;;;12.60;8.75;;;9.70;99.90;;;;;;5115219;28;20489;-61
2021/12/25 06:10:15;;;;;;;12.98;8.43;;;9.70;99.90;;;;;;5097033;28;20039;-62
2021/12/25 06:12:44;;;;;;;16.80;7.07;;;9.80;99.90;;;;;;5079293;28;20043;-62
2021/12/25 06:15:14;;;;;;;11.75;6.93;;;9.80;99.90;;;;;;5096743;28;20044;-62
2021/12/25 06:17:48;;;;;;;15.48;7.10;;;9.90;99.90;;;;;;5097517;28;20513;-61
2021/12/25 06:20:23;;;;;;;11.63;7.07;;;9.90;99.90;;;;;;5080874;28;20036;-62
2021/12/25 06:22:57;;;;;;;12.55;6.90;;;10.00;99.90;;;;;;5115183;28;20067;-62
2021/12/25 06:25:51;;;;;;;10.73;7.03;;;10.00;99.90;;;;;;5090813;28;20051;-62
2021/12/25 06:28:41;;;;;;;14.70;8.88;;;10.00;99.90;;;;;;5106630;28;20044;-62
2021/12/25 06:31:47;;;;;;;11.13;7.10;;;9.90;99.90;;;;;;5052125;28;20053;-62
2021/12/25 06:34:34;;;;;;;12.07;8.45;;;9.80;99.90;;;;;;5038424;28;20134;-61
2021/12/25 06:37:27;;;;;;;11.82;7.97;;;9.80;99.90;;;;;;5087921;28;20052;-62
2021/12/25 06:40:18;;;;;;;16.87;10.63;;;9.80;99.90;;;;;;5114398;28;20523;-62
2021/12/25 06:42:47;;;;;;;14.18;9.23;;;10.00;99.90;;;;;;5096988;28;20055;-62
2021/12/25 06:45:14;;;;;;;11.65;8.02;;;10.30;99.90;;;;;;5114903;28;20039;-62
2021/12/25 06:47:42;;;;;;;8.90;7.40;;;10.60;99.90;;;;;;5096549;28;20168;-62
2021/12/25 06:50:18;;;;;;;10.75;6.80;;;11.00;99.90;;;;;;5064278;28;20044;-62
2021/12/25 06:53:18;;;;;;;9.30;7.00;;;11.20;99.90;;;;;;5058433;28;20121;-62
2021/12/25 06:56:04;;;;;;;12.18;7.65;;;11.40;99.90;;;;;;5114463;28;20039;-62
2021/12/25 06:58:40;;;;;;;13.48;6.35;;;11.80;99.90;;;;;;5114414;28;20051;-62
2021/12/25 07:01:09;;;;;;;10.30;7.55;;;12.20;99.90;;;;;;5096053;28;20044;-62
2021/12/25 07:03:37;;;;;;;12.43;7.40;;;12.60;99.90;;;;;;5096426;28;20493;-62
2021/12/25 07:06:23;;;;;;;10.95;7.75;;;13.10;99.90;;;;;;5099057;28;20040;-62
2021/12/25 07:09:20;;;;;;;10.95;7.82;;;13.50;99.90;;;;;;5096334;28;20408;-62
2021/12/25 07:11:59;;;;;;;15.27;7.43;;;13.40;99.90;;;;;;5114168;28;20436;-62
2021/12/25 07:14:59;;;;;;;10.60;6.93;;;13.40;99.90;;;;;;5046710;28;20048;-62
2021/12/25 07:17:48;;;;;;;12.02;7.38;;;13.50;99.90;;;;;;5078357;28;20048;-62
2021/12/25 07:20:35;;;;;;;11.23;6.68;;;13.70;99.90;;;;;;5095999;28;20040;-62
2021/12/25 07:23:18;;;;;;;10.25;7.13;;;14.00;99.90;;;;;;5080724;28;20040;-62
2021/12/25 07:26:08;;;;;;;10.82;7.00;;;13.90;99.90;;;;;;5096089;28;20039;-62
2021/12/25 07:28:43;;;;;;;8.20;5.53;;;13.20;99.90;;;;;;5095872;28;20087;-62
2021/12/25 07:31:10;;;;;;;9.27;6.50;;;12.90;99.90;;;;;;5095981;28;20048;-62
2021/12/25 07:33:40;;;;;;;10.40;6.53;;;12.70;99.90;;;;;;5116397;28;20116;-62
2021/12/25 07:36:13;;;;;;;13.95;7.05;;;12.60;99.90;;;;;;5100098;28;20512;-62
2021/12/25 07:38:41;;;;;;;16.13;10.57;;;12.70;99.90;;;;;;5083319;28;20138;-62
2021/12/25 07:41:08;;;;;;;11.38;7.07;;;12.60;99.90;;;;;;5100369;28;20390;-61
2021/12/25 07:43:36;;;;;;;9.43;6.38;;;12.40;99.90;;;;;;5118139;28;20043;-62
2021/12/25 07:46:22;;;;;;;8.27;5.90;;;12.60;99.90;;;;;;5113953;28;20031;-62
2021/12/25 07:48:50;;;;;;;8.07;5.55;;;12.90;99.90;;;;;;5099156;28;20564;-62
2021/12/25 07:51:17;;;;;;;9.35;5.25;;;12.90;99.90;;;;;;5111350;28;20040;-62
2021/12/25 07:53:45;;;;;;;12.23;6.82;;;13.40;99.90;;;;;;5097311;28;20039;-62
2021/12/25 07:56:13;;;;;;;12.00;6.90;;;14.00;99.90;;;;;;5093205;28;20078;-63
2021/12/25 07:58:42;;;;;;;9.50;5.80;;;14.10;99.90;;;;;;5113356;28;20035;-62
2021/12/25 08:01:10;;;;;;;11.45;5.38;;;14.30;99.90;;;;;;5093562;28;20417;-63
2021/12/25 08:03:37;;;;;;;12.20;6.93;;;14.20;99.90;;;;;;5108343;28;20044;-62
2021/12/25 08:06:05;;;;;;;12.32;7.70;;;14.20;99.90;;;;;;5107088;28;20035;-63
2021/12/25 08:08:32;;;;;;;7.68;5.82;;;14.30;99.90;;;;;;5111798;27;20048;-63
2021/12/25 08:11:00;;;;;;;9.88;5.60;;;14.30;99.90;;;;;;5110083;28;20044;-64
2021/12/25 08:13:27;;;;;;;8.32;4.90;;;14.10;99.90;;;;;;5093960;28;20061;-63
2021/12/25 08:15:55;;;;;;;5.90;4.10;;;14.10;99.90;;;;;;5088878;28;20059;-63
2021/12/25 08:18:22;;;;;;;8.35;4.72;;;14.40;99.90;;;;;;5114453;28;20039;-63
2021/12/25 08:21:08;;;;;;;6.38;5.07;;;14.20;99.90;;;;;;5114022;28;20520;-63
2021/12/25 08:23:54;;;;;;;7.93;5.53;;;14.30;99.90;;;;;;5114794;28;20036;-63
2021/12/25 08:26:42;;;;;;;5.55;3.75;;;14.00;99.90;;;;;;5090864;28;20028;-62
2021/12/25 08:29:41;;;;;;;6.10;4.30;;;13.90;99.90;;;;;;5089373;28;20051;-62
2021/12/25 08:32:42;;;;;;;9.70;4.43;;;13.80;99.90;;;;;;5110741;28;20089;-65
2021/12/25 08:35:30;;;;;;;11.35;5.10;;;13.80;99.90;;;;;;5078294;28;20062;-65
2021/12/25 08:37:58;;;;;;;4.97;3.53;;;13.70;99.90;;;;;;5089706;28;20041;-65
2021/12/25 08:40:26;;;;;;;6.00;3.97;;;13.80;99.90;;;;;;5105922;28;20073;-65
2021/12/25 08:42:59;;;;;;;6.82;3.90;;;13.90;99.90;;;;;;5101528;28;20039;-65
2021/12/25 08:48:26;;;;;;;9.48;3.83;;;14.00;99.90;;;;;;5103615;28;20559;-65
2021/12/25 08:50:56;;;;;;;6.93;3.85;;;14.10;99.90;;;;;;5095893;28;20485;-65
2021/12/25 08:53:26;;;;;;;6.97;4.05;;;14.20;99.90;;;;;;5085168;28;20120;-65
2021/12/25 08:55:56;;;;;;;10.32;3.67;;;14.20;99.90;;;;;;5114381;28;20142;-65
2021/12/25 08:58:25;;;;;;;6.50;3.92;;;14.20;99.90;;;;;;5106668;27;20059;-64
2021/12/25 09:00:57;;;;;;;7.88;4.30;;;14.20;99.90;;;;;;5089955;28;20043;-64
2021/12/25 09:03:26;;;;;;;8.77;3.67;;;14.20;99.90;;;;;;5095537;28;20059;-64
2021/12/25 09:05:59;;;;;;;9.25;4.45;;;14.30;99.90;;;;;;5095738;28;20036;-64
2021/12/25 09:08:27;;;;;;;8.20;3.58;;;14.30;99.90;;;;;;5061497;28;20036;-64
2021/12/25 09:10:55;;;;;;;5.57;2.92;;;14.40;99.90;;;;;;5061429;28;20071;-64
2021/12/25 09:13:23;;;;;;;5.80;3.45;;;14.50;99.90;;;;;;5078292;28;20491;-64
2021/12/25 09:15:50;;;;;;;11.57;3.38;;;14.50;99.90;;;;;;5096221;28;20067;-64
2021/12/25 09:18:18;;;;;;;6.60;3.30;;;14.50;99.90;;;;;;5044598;28;20055;-64
2021/12/25 09:20:46;;;;;;;7.85;3.88;;;14.60;99.90;;;;;;5077756;28;20052;-65
2021/12/25 09:23:13;;;;;;;6.72;3.38;;;14.60;99.90;;;;;;5094115;28;20135;-65
2021/12/25 09:25:41;;;;;;;10.20;3.00;;;14.80;99.90;;;;;;5077625;28;20040;-64
2021/12/25 09:28:10;;;;;;;5.82;2.85;;;14.80;99.90;;;;;;5078118;28;20173;-65
2021/12/25 09:30:38;;;;;;;5.60;3.05;;;14.80;99.90;;;;;;5095590;28;20051;-63
2021/12/25 09:33:06;;;;;;;6.45;3.10;;;14.80;99.90;;;;;;5077423;28;20097;-64
2021/12/25 09:35:33;;;;;;;8.57;3.78;;;14.70;99.90;;;;;;5095498;28;20478;-63
2021/12/25 09:38:01;;;;;;;5.85;4.13;;;14.70;99.90;;;;;;5095225;28;20059;-64
2021/12/25 09:40:29;;;;;;;12.38;4.15;;;14.80;99.90;;;;;;5059964;28;20088;-64
2021/12/25 09:42:57;;;;;;;8.13;3.50;;;14.90;99.90;;;;;;5095758;28;20490;-64
2021/12/25 09:45:24;;;;;;;5.50;3.05;;;15.00;99.90;;;;;;5077750;28;20043;-64
2021/12/25 09:47:52;;;;;;;4.72;2.88;;;15.10;99.90;;;;;;5077117;28;20040;-64
2021/12/25 09:50:20;;;;;;;5.88;3.67;;;15.20;99.90;;;;;;5077100;28;20073;-64
2021/12/25 09:52:47;;;;;;;5.55;3.85;;;15.30;99.90;;;;;;5094983;28;20048;-64
2021/12/25 09:55:16;;;;;;;5.10;3.30;;;15.40;99.90;;;;;;5076631;28;20394;-64
2021/12/25 09:57:44;;;;;;;6.18;2.90;;;15.50;99.90;;;;;;5060307;28;20044;-64
2021/12/25 10:00:22;;;;;;;5.35;3.60;;;15.70;99.90;;;;;;5094924;28;20040;-64
2021/12/25 10:02:55;;;;;;;4.57;2.83;;;15.80;99.90;;;;;;5095198;28;20078;-65
2021/12/25 10:05:30;;;;;;;5.35;2.58;;;15.90;99.90;;;;;;5094969;28;20048;-65
2021/12/25 10:08:25;;;;;;;7.20;2.78;;;15.90;99.70;;;;;;5094723;28;20047;-65
2021/12/25 10:10:59;;;;;;;4.88;3.10;;;15.90;99.80;;;;;;5094669;28;20043;-65
2021/12/25 10:13:29;;;;;;;3.83;2.72;;;16.00;98.90;;;;;;5094469;28;20040;-65
2021/12/25 10:16:16;;;;;;;4.30;2.47;;;16.00;98.30;;;;;;5076777;28;20040;-65
2021/12/25 10:18:45;;;;;;;4.50;2.15;;;16.10;97.60;;;;;;5076973;28;20494;-65
2021/12/25 10:21:20;;;;;;;4.15;2.38;;;16.10;97.50;;;;;;5076774;28;20040;-65
2021/12/25 10:24:15;;;;;;;6.35;2.15;;;16.00;97.10;;;;;;5094516;28;20036;-65
2021/12/25 10:26:46;;;;;;;3.50;2.67;;;16.10;97.40;;;;;;5069316;28;20052;-65
2021/12/25 10:29:26;;;;;;;4.13;2.53;;;16.20;98.10;;;;;;5059891;28;20073;-66
2021/12/25 10:31:59;;;;;;;4.05;2.42;;;16.30;98.60;;;;;;5042894;28;20048;-65
2021/12/25 10:34:30;;;;;;;3.10;2.20;;;16.30;97.60;;;;;;5076321;28;20494;-65
2021/12/25 10:37:13;;;;;;;8.07;2.70;;;16.30;97.50;;;;;;5094095;28;20044;-65
2021/12/25 10:39:41;;;;;;;3.13;2.10;;;16.30;98.00;;;;;;5093895;28;20048;-65
2021/12/25 10:42:18;;;;;;;7.72;2.78;;;16.30;97.80;;;;;;5056588;28;20160;-65
2021/12/25 10:44:47;;;;;;;4.35;2.47;;;16.30;97.90;;;;;;5056397;28;20040;-65
2021/12/25 10:47:28;;;;;;;4.30;2.45;;;16.40;97.90;;;;;;5056242;28;20388;-66
2021/12/25 10:50:14;;;;;;;4.90;2.55;;;16.50;98.30;;;;;;5056566;28;20550;-65
2021/12/25 10:52:47;;;;;;;9.02;3.60;;;16.30;97.40;;;;;;5073857;28;20149;-65
2021/12/25 10:55:24;;;;;;;5.95;3.53;;;16.30;98.10;;;;;;5056164;28;20045;-66
2021/12/25 10:57:56;;;;;;;3.65;2.55;;;16.30;98.30;;;;;;5073637;28;20044;-65
2021/12/25 11:00:24;;;;;;;5.32;2.80;;;16.20;98.10;;;;;;5072986;28;20543;-65
2021/12/25 11:03:08;;;;;;;5.82;3.50;;;16.10;98.40;;;;;;5100442;28;20043;-66
2021/12/25 11:05:44;;;;;;;6.70;3.65;;;16.10;98.90;;;;;;5063273;28;20039;-65
2021/12/25 11:08:17;;;;;;;4.30;2.92;;;15.90;98.70;;;;;;5092816;28;20044;-66
2021/12/25 11:10:46;;;;;;;6.25;2.78;;;15.90;99.00;;;;;;5089698;28;20059;-65
2021/12/25 11:13:23;;;;;;;4.30;2.38;;;15.80;99.40;;;;;;5090722;28;20040;-65
2021/12/25 11:16:01;;;;;;;3.95;2.40;;;15.80;99.80;;;;;;5083469;28;20127;-65
2021/12/25 11:18:31;;;;;;;4.38;3.00;;;15.70;99.70;;;;;;5082159;28;20032;-65
2021/12/25 11:20:59;;;;;;;6.07;2.95;;;15.80;99.90;;;;;;5070133;28;20044;-65
2021/12/25 11:23:28;;;;;;;5.50;3.25;;;15.70;99.90;;;;;;5086554;28;20119;-65
2021/12/25 11:25:55;;;;;;;5.18;3.05;;;15.80;99.90;;;;;;5086705;28;20505;-65
2021/12/25 11:28:23;;;;;;;11.32;2.90;;;15.80;99.90;;;;;;5093507;28;20044;-65
2021/12/25 11:30:52;;;;;;;5.90;2.78;;;15.90;99.80;;;;;;5075292;28;20044;-65
2021/12/25 11:33:20;;;;;;;7.50;3.88;;;15.80;99.60;;;;;;5075616;28;20066;-65
2021/12/25 11:35:47;;;;;;;6.72;3.42;;;15.90;99.80;;;;;;5093670;28;20135;-65
2021/12/25 11:38:15;;;;;;;5.13;2.58;;;15.80;99.60;;;;;;5058736;28;20058;-65
2021/12/25 11:40:50;;;;;;;6.90;2.72;;;15.70;99.90;;;;;;5058860;28;20131;-64
2021/12/25 11:43:34;;;;;;;4.90;2.33;;;15.70;99.80;;;;;;5075365;28;20044;-66
2021/12/25 11:46:06;;;;;;;5.32;3.20;;;15.70;99.90;;;;;;5075458;28;20494;-64
2021/12/25 11:48:35;;;;;;;8.52;4.28;;;15.70;99.90;;;;;;5075258;28;20475;-65
2021/12/25 11:51:04;;;;;;;8.13;3.17;;;15.60;99.90;;;;;;5075334;28;20041;-65
2021/12/25 11:58:40;;;;;;;6.38;2.90;;;15.60;99.90;;;;;;5057993;28;19969;-65
2021/12/25 12:01:23;;;;;;;5.80;3.08;;;15.60;99.90;;;;;;5075579;28;20068;-64
2021/12/25 12:03:57;;;;;;;8.93;3.55;;;15.50;99.90;;;;;;5075592;28;20075;-64
2021/12/25 12:09:19;;;;;;;6.18;2.90;;;15.40;99.90;;;;;;5057904;28;20040;-64
2021/12/25 12:12:15;;;;;;;7.53;3.13;;;15.30;99.90;;;;;;5079790;28;20056;-65
2021/12/25 12:15:07;;;;;;;6.03;3.92;;;15.30;99.90;;;;;;5093185;28;20133;-64
2021/12/25 12:17:55;;;;;;;7.45;2.88;;;15.30;99.90;;;;;;5093349;28;20039;-64
2021/12/25 12:20:41;;;;;;;6.10;2.42;;;15.40;99.90;;;;;;5061672;28;20044;-65
2021/12/25 12:26:53;;;;;;;5.55;2.67;;;15.30;99.90;;;;;;5079060;28;20044;-64
2021/12/25 12:29:42;;;;;;;6.32;2.90;;;15.30;99.90;;;;;;5061967;28;20142;-64
2021/12/25 12:32:19;;;;;;;6.57;3.35;;;15.20;99.90;;;;;;5078401;28;20055;-65
2021/12/25 12:34:51;;;;;;;6.72;2.78;;;15.10;99.90;;;;;;5078634;28;20539;-64
2021/12/25 12:37:21;;;;;;;8.77;3.45;;;15.10;99.90;;;;;;5096677;28;20066;-64
2021/12/25 12:39:56;;;;;;;10.93;4.13;;;14.90;99.90;;;;;;5062335;28;20052;-64
2021/12/25 12:42:47;;;;;;;4.32;3.20;;;14.90;99.90;;;;;;5082177;28;20115;-65
2021/12/25 12:45:31;;;;;;;7.50;3.60;;;14.80;99.90;;;;;;5099256;28;20036;-64
2021/12/25 12:48:10;;;;;;;7.53;3.72;;;14.80;99.90;;;;;;5099059;28;20071;-64
2021/12/25 12:50:42;;;;;;;5.35;2.55;;;14.80;99.90;;;;;;5082007;28;20067;-63
2021/12/25 12:53:10;;;;;;;6.28;3.42;;;14.80;99.90;;;;;;5081727;28;20043;-63
2021/12/25 12:55:40;;;;;;;5.70;3.03;;;14.70;99.90;;;;;;5116771;28;20053;-63
2021/12/25 12:58:18;;;;;;;6.85;4.55;;;14.70;99.90;;;;;;5098701;28;20036;-63
2021/12/25 13:00:50;;;;;;;6.47;3.10;;;14.70;99.90;;;;;;5117183;28;20134;-63
2021/12/25 13:03:18;;;;;;;4.63;2.75;;;14.70;99.90;;;;;;5098287;28;20048;-64
2021/12/25 13:05:53;;;;;;;5.40;3.05;;;14.70;99.90;;;;;;5081588;28;20484;-64
2021/12/25 13:08:28;;;;;;;7.45;3.65;;;14.70;99.90;;;;;;5064926;28;20048;-64
2021/12/25 13:11:07;;;;;;;5.05;2.80;;;14.70;99.90;;;;;;5081388;28;20043;-64
2021/12/25 13:13:40;;;;;;;6.10;3.22;;;14.70;99.90;;;;;;5098065;28;20101;-64
2021/12/25 13:16:14;;;;;;;10.43;3.95;;;14.70;99.90;;;;;;5098440;28;20096;-64
2021/12/25 13:18:48;;;;;;;5.53;3.25;;;14.70;99.90;;;;;;5098096;28;20042;-64
2021/12/25 13:21:22;;;;;;;7.88;4.18;;;14.70;99.90;;;;;;5098246;28;20051;-64
2021/12/25 13:23:55;;;;;;;7.85;3.15;;;14.70;99.90;;;;;;5116023;28;20075;-64
2021/12/25 13:26:38;;;;;;;9.55;3.78;;;14.80;99.90;;;;;;5081179;28;20443;-64
2021/12/25 13:29:09;;;;;;;9.75;3.67;;;14.80;99.90;;;;;;5097538;28;20036;-64
2021/12/25 13:31:40;;;;;;;5.95;3.13;;;14.70;99.90;;;;;;5096513;28;20039;-64
2021/12/25 13:34:15;;;;;;;6.35;3.35;;;14.70;99.90;;;;;;5064412;28;20424;-64
2021/12/25 13:36:48;;;;;;;8.77;4.13;;;14.70;99.90;;;;;;5115974;28;20478;-64
2021/12/25 13:39:26;;;;;;;6.85;3.05;;;14.70;99.90;;;;;;5097228;28;20047;-64
2021/12/25 13:42:11;;;;;;;6.40;3.60;;;14.60;99.90;;;;;;5080399;28;20048;-65
2021/12/25 13:44:44;;;;;;;11.32;3.50;;;14.60;99.90;;;;;;5097245;28;20414;-64
2021/12/25 13:47:26;;;;;;;7.38;3.47;;;14.60;99.90;;;;;;5097092;28;20039;-65
2021/12/25 13:49:58;;;;;;;9.00;3.75;;;14.60;99.90;;;;;;5097238;28;20040;-63
2021/12/25 13:52:49;;;;;;;9.00;4.38;;;14.50;99.90;;;;;;5115525;28;20118;-63
2021/12/25 13:55:20;;;;;;;9.35;6.05;;;14.50;99.90;;;;;;5115481;28;20432;-63
2021/12/25 13:57:51;;;;;;;11.90;4.60;;;14.40;99.90;;;;;;5115439;28;20051;-63
2021/12/25 14:00:23;;;;;;;10.93;5.32;;;14.40;99.90;;;;;;5097600;28;20376;-63
2021/12/25 14:02:55;;;;;;;8.30;3.97;;;14.40;99.90;;;;;;5097328;28;20058;-63
2021/12/25 14:05:26;;;;;;;7.65;3.47;;;14.30;99.90;;;;;;5080704;28;20108;-63
2021/12/25 14:07:54;;;;;;;8.25;4.78;;;14.30;99.90;;;;;;5097291;28;20428;-64
2021/12/25 14:10:28;;;;;;;9.68;4.90;;;14.30;99.90;;;;;;5097303;28;20035;-63
2021/12/25 14:12:58;;;;;;;13.57;6.22;;;14.20;99.90;;;;;;5063521;28;20051;-63
2021/12/25 14:15:30;;;;;;;8.13;5.60;;;14.20;99.90;;;;;;5063565;28;20048;-63
2021/12/25 14:17:58;;;;;;;9.60;4.93;;;14.20;99.90;;;;;;5096947;28;20045;-63
2021/12/25 14:20:27;;;;;;;10.63;5.85;;;14.10;99.90;;;;;;5080179;28;20521;-63
2021/12/25 14:23:14;;;;;;;10.38;4.45;;;14.10;99.90;;;;;;5063467;28;20075;-63
2021/12/25 14:26:00;;;;;;;13.85;5.82;;;14.10;99.90;;;;;;5063673;28;20363;-64
2021/12/25 14:28:34;;;;;;;7.38;5.28;;;14.00;99.90;;;;;;5062899;28;20489;-63
2021/12/25 14:31:07;;;;;;;7.80;4.47;;;14.00;99.90;;;;;;5096859;28;20427;-63
2021/12/25 14:33:37;;;;;;;10.88;5.78;;;14.00;99.90;;;;;;5096242;28;20065;-63
2021/12/25 14:36:10;;;;;;;8.43;4.18;;;13.90;99.90;;;;;;5114080;28;20050;-64
2021/12/25 14:38:43;;;;;;;8.15;4.28;;;13.90;99.90;;;;;;5114427;28;20196;-63
2021/12/25 14:41:12;;;;;;;8.63;5.47;;;13.90;99.90;;;;;;5079356;28;20055;-65
2021/12/25 14:43:41;;;;;;;10.15;5.88;;;13.90;99.90;;;;;;5079327;28;20090;-64
2021/12/25 14:46:10;;;;;;;13.05;5.25;;;13.90;99.90;;;;;;5096070;28;20058;-64
2021/12/25 14:48:42;;;;;;;9.75;5.93;;;13.90;99.90;;;;;;5096447;28;20054;-64
2021/12/25 14:51:13;;;;;;;9.25;4.40;;;13.80;99.90;;;;;;5096092;28;20043;-64